Time;durP1;ratioP1;P1;durP2;ratioP2;P2;SDS_P1;SDS_P2;PMS_P1;PMS_P2;Temp;Humidity;BMP_temperature;BMP_pressure;BME280_temperature;BME280_humidity;BME280_pressure;Samples;Min_cycle;Max_cycle;Signal;HPM_P1;HPM_P2
2022/01/30 06:42:50;;;;;;;;;;;;;;;4.70;100.00;98577.31;5627755;25;19962;31
2022/01/30 06:45:42;;;;;;;;;;;;;;;4.73;100.00;98579.38;4672214;30;19970;-66
2022/01/30 06:48:32;;;;;;;;;;;;;;;4.69;100.00;98589.56;4666940;30;19962;-66
2022/01/30 06:51:18;;;;;;;;;;;;;;;4.78;100.00;98584.69;4669273;30;19968;-66
2022/01/30 06:53:45;;;;;;;;;;;;;;;4.82;100.00;98586.38;4668982;30;19963;-67
2022/01/30 06:56:31;;;;;;;;;;;;;;;4.74;100.00;98594.84;4671364;30;19970;-66
2022/01/30 06:59:17;;;;;;;;;;;;;;;4.75;100.00;98585.38;4684625;30;19962;-66
2022/01/30 07:02:03;;;;;;;;;;;;;;;4.83;100.00;98593.53;4668990;30;20396;-66
2022/01/30 07:04:49;;;;;;;;;;;;;;;4.78;100.00;98590.22;4669595;30;19961;-66
2022/01/30 07:07:31;;;;;;;;;;;;;;;4.90;100.00;98584.63;4651155;30;19960;-66
2022/01/30 07:09:58;;;;;;;;;;;;;;;5.04;100.00;98598.84;4668876;30;19959;-66
2022/01/30 07:12:26;;;;;;;;;;;;;;;5.46;100.00;98593.66;4667045;30;20358;-66
2022/01/30 07:14:53;;;;;;;;;;;;;;;5.83;100.00;98592.22;4674271;30;19957;-66
2022/01/30 07:17:20;;;;;;;;;;;;;;;6.08;100.00;98590.88;4669764;30;19974;-67
2022/01/30 07:19:47;;;;;;;;;;;;;;;6.56;100.00;98601.47;4667773;30;19958;-67
2022/01/30 07:22:15;;;;;;;;;;;;;;;7.46;100.00;98597.31;4668415;30;20342;-67
2022/01/30 07:24:42;;;;;;;;;;;;;;;8.47;100.00;98597.41;4668761;30;19969;-66
2022/01/30 07:27:09;;;;;;;;;;;;;;;10.07;100.00;98595.19;4668664;30;19953;-66
2022/01/30 07:29:37;;;;;;;;;;;;;;;11.99;100.00;98598.41;4668931;30;19963;-66
2022/01/30 07:32:04;;;;;;;;;;;;;;;13.97;100.00;98606.94;4668718;30;19964;-67
2022/01/30 07:34:32;;;;;;;;;;;;;;;16.11;88.79;98608.53;4668469;30;19951;-67
2022/01/30 07:36:59;;;;;;;;;;;;;;;17.60;72.34;98627.16;4668756;30;19976;-67
2022/01/30 07:39:29;;;;;;;;;;;;;;;18.49;65.94;98642.09;4668717;30;19958;-68
2022/01/30 07:41:57;;;;;;;;;;;;;;;19.38;60.26;98630.00;4669226;30;19953;-67
2022/01/30 07:44:29;;;;;;;;;;;;;;;19.58;57.28;98624.97;4653839;30;19974;-68
2022/01/30 07:46:56;;;;;;;;;;;;;;;19.30;57.37;98622.91;4668731;30;20253;-67
2022/01/30 07:49:24;;;;;;;;;;;;;;;20.69;52.90;98610.44;4669241;30;20247;-68
2022/01/30 07:51:51;;;;;;;;;;;;;;;21.72;49.67;98613.22;4669221;30;20261;-68
2022/01/30 07:54:18;;;;;;;;;;;;;;;23.48;43.61;98616.44;4669156;30;19981;-68
2022/01/30 07:56:46;;;;;;;;;;;;;;;23.64;41.24;98633.25;4668811;30;19969;-68
2022/01/30 07:59:14;;;;;;;;;;;;;;;22.61;40.44;98621.84;4653551;30;19962;-68
2022/01/30 08:01:41;;;;;;;;;;;;;;;24.63;36.92;98634.19;4668226;30;19954;-68
2022/01/30 08:04:08;;;;;;;;;;;;;;;25.64;32.95;98617.94;4668729;30;20343;-68
2022/01/30 08:06:36;;;;;;;;;;;;;;;26.06;32.63;98627.03;4668537;30;19955;-68
2022/01/30 08:09:03;;;;;;;;;;;;;;;25.37;31.53;98631.19;4668279;30;19955;-68
2022/01/30 08:11:31;;;;;;;;;;;;;;;26.02;31.24;98626.44;4668535;30;19956;-69
2022/01/30 08:13:58;;;;;;;;;;;;;;;26.74;30.41;98614.09;4667919;30;19952;-68
2022/01/30 08:16:27;;;;;;;;;;;;;;;27.57;28.70;98617.28;4667666;30;19958;-70
2022/01/30 08:18:55;;;;;;;;;;;;;;;28.56;27.38;98625.28;4667665;30;20273;-71
2022/01/30 08:21:23;;;;;;;;;;;;;;;29.82;25.94;98632.25;4670375;30;19957;-69
2022/01/30 08:23:50;;;;;;;;;;;;;;;28.24;26.31;98624.53;4685218;30;20274;-69
2022/01/30 08:26:18;;;;;;;;;;;;;;;28.71;25.40;98630.91;4684955;30;19952;-69
2022/01/30 08:28:45;;;;;;;;;;;;;;;28.37;26.00;98627.75;4685395;30;19949;-70
2022/01/30 08:31:12;;;;;;;;;;;;;;;27.64;27.59;98627.53;4685214;30;19952;-69
2022/01/30 08:33:40;;;;;;;;;;;;;;;28.14;26.10;98623.13;4680304;30;19953;-70
2022/01/30 08:36:07;;;;;;;;;;;;;;;27.46;27.57;98627.88;4666341;30;19957;-69
2022/01/30 08:38:34;;;;;;;;;;;;;;;24.95;30.48;98621.97;4667722;30;20267;-69
2022/01/30 08:41:02;;;;;;;;;;;;;;;22.27;36.41;98625.72;4667556;30;19955;-70
2022/01/30 08:43:30;;;;;;;;;;;;;;;20.28;43.79;98617.09;4666829;30;19974;-69
2022/01/30 08:45:59;;;;;;;;;;;;;;;17.46;51.24;98626.66;4667227;30;19963;-69
2022/01/30 08:48:28;;;;;;;;;;;;;;;15.92;61.36;98631.78;4668040;30;19953;-68
2022/01/30 08:50:55;;;;;;;;;;;;;;;14.43;70.82;98627.09;4667961;30;19955;-68
2022/01/30 08:53:22;;;;;;;;;;;;;;;13.65;76.69;98626.03;4653128;30;19951;-68
2022/01/30 08:55:50;;;;;;;;;;;;;;;12.85;83.33;98620.34;4668008;30;19956;-68
2022/01/30 08:58:17;;;;;;;;;;;;;;;12.65;86.09;98619.19;4667502;30;20059;-67
2022/01/30 09:00:45;;;;;;;;;;;;;;;12.35;89.87;98616.81;4667509;30;19962;-67
2022/01/30 09:03:13;;;;;;;;;;;;;;;11.96;91.05;98620.84;4666737;30;19962;-67
2022/01/30 09:05:40;;;;;;;;;;;;;;;11.67;96.96;98622.75;4667727;30;20261;-68
2022/01/30 09:08:08;;;;;;;;;;;;;;;10.88;99.52;98615.28;4667390;30;20057;-67
2022/01/30 09:10:37;;;;;;;;;;;;;;;10.49;100.00;98619.84;4667406;30;20376;-67
2022/01/30 09:13:05;;;;;;;;;;;;;;;10.26;100.00;98613.69;4665969;30;19964;-67
2022/01/30 09:15:38;;;;;;;;;;;;;;;10.41;100.00;98621.00;4665805;30;19959;-67
2022/01/30 09:18:08;;;;;;;;;;;;;;;10.13;100.00;98626.38;4666507;30;20372;-67
2022/01/30 09:20:37;;;;;;;;;;;;;;;10.13;100.00;98623.56;4669359;30;19957;-67
2022/01/30 09:23:05;;;;;;;;;;;;;;;10.35;100.00;98620.56;4667958;30;19954;-67
2022/01/30 09:25:33;;;;;;;;;;;;;;;9.74;100.00;98626.81;4667420;30;19976;-67
2022/01/30 09:28:00;;;;;;;;;;;;;;;9.69;100.00;98629.94;4670365;30;19974;-67
2022/01/30 09:30:28;;;;;;;;;;;;;;;9.63;100.00;98616.72;4670259;30;19952;-67
2022/01/30 09:32:55;;;;;;;;;;;;;;;9.67;100.00;98623.13;4666946;30;19957;-67
2022/01/30 09:35:23;;;;;;;;;;;;;;;9.43;100.00;98627.28;4667803;30;19959;-67
2022/01/30 09:37:50;;;;;;;;;;;;;;;9.69;100.00;98641.13;4663683;30;19962;-67
2022/01/30 09:40:18;;;;;;;;;;;;;;;8.97;100.00;98637.09;4664631;30;20236;-67
2022/01/30 09:42:46;;;;;;;;;;;;;;;8.77;100.00;98622.50;4666950;30;19958;-67
2022/01/30 09:45:15;;;;;;;;;;;;;;;8.81;100.00;98631.69;4662763;30;19981;-67
2022/01/30 09:47:42;;;;;;;;;;;;;;;8.72;100.00;98633.97;4664349;30;19981;-66
2022/01/30 09:50:10;;;;;;;;;;;;;;;8.95;100.00;98636.69;4668871;30;19965;-67
2022/01/30 09:52:38;;;;;;;;;;;;;;;8.73;100.00;98640.38;4669917;30;19952;-67
2022/01/30 09:55:06;;;;;;;;;;;;;;;8.94;100.00;98637.84;4669403;30;19952;-67
2022/01/30 09:57:34;;;;;;;;;;;;;;;8.84;100.00;98642.09;4668486;30;19975;-67
2022/01/30 10:00:04;;;;;;;;;;;;;;;8.82;100.00;98641.69;4669668;30;19958;-67
2022/01/30 10:02:33;;;;;;;;;;;;;;;8.81;100.00;98645.66;4669742;30;19961;-66
2022/01/30 10:05:01;;;;;;;;;;;;;;;8.87;100.00;98646.13;4668609;30;19962;-66
2022/01/30 10:07:42;;;;;;;;;;;;;;;9.03;100.00;98641.97;4667780;30;20430;-67
2022/01/30 10:10:11;;;;;;;;;;;;;;;9.17;100.00;98635.72;4664822;30;19959;-66
2022/01/30 10:12:58;;;;;;;;;;;;;;;9.37;100.00;98642.75;4667563;30;19951;-66
2022/01/30 10:15:25;;;;;;;;;;;;;;;9.53;100.00;98632.19;4668671;30;19955;-67
2022/01/30 10:17:53;;;;;;;;;;;;;;;9.35;100.00;98649.91;4667394;30;19969;-67
2022/01/30 10:20:34;;;;;;;;;;;;;;;9.16;100.00;98634.94;4667400;30;20261;-67
2022/01/30 10:23:07;;;;;;;;;;;;;;;9.34;100.00;98632.34;4668780;30;19955;-67
2022/01/30 10:25:39;;;;;;;;;;;;;;;9.19;100.00;98631.38;4666426;30;20378;-66
2022/01/30 10:28:27;;;;;;;;;;;;;;;9.21;100.00;98636.59;4668119;30;19979;-66
2022/01/30 10:30:56;;;;;;;;;;;;;;;9.43;100.00;98632.88;4656706;30;19958;-66
2022/01/30 10:33:39;;;;;;;;;;;;;;;9.35;100.00;98631.19;4668477;30;19962;-67
2022/01/30 10:36:09;;;;;;;;;;;;;;;9.77;100.00;98620.44;4670945;30;19965;-67
2022/01/30 10:38:40;;;;;;;;;;;;;;;9.34;100.00;98621.19;4664150;30;19956;-67
2022/01/30 10:41:13;;;;;;;;;;;;;;;9.72;100.00;98615.22;4666689;30;19960;-67
2022/01/30 10:43:51;;;;;;;;;;;;;;;9.63;100.00;98617.53;4669088;30;19979;-67
2022/01/30 10:46:19;;;;;;;;;;;;;;;10.02;100.00;98614.28;4668103;30;19963;-67
2022/01/30 10:48:55;;;;;;;;;;;;;;;9.74;100.00;98618.41;4668197;30;19976;-67
2022/01/30 10:51:23;;;;;;;;;;;;;;;9.86;100.00;98598.59;4666805;30;19961;-67
2022/01/30 10:53:51;;;;;;;;;;;;;;;10.01;100.00;98596.72;4669013;30;19961;-67
2022/01/30 10:56:24;;;;;;;;;;;;;;;10.08;100.00;98598.75;4668719;30;19960;-67
2022/01/30 10:59:10;;;;;;;;;;;;;;;10.12;100.00;98602.44;4667573;30;19950;-68
2022/01/30 11:01:42;;;;;;;;;;;;;;;10.19;100.00;98599.69;4674465;30;19955;-67
2022/01/30 11:04:26;;;;;;;;;;;;;;;9.97;100.00;98584.72;4671016;30;19959;-67
2022/01/30 11:06:54;;;;;;;;;;;;;;;10.24;100.00;98591.75;4675539;30;19962;-67
2022/01/30 11:09:27;;;;;;;;;;;;;;;10.08;100.00;98579.19;4668672;30;19991;-68
2022/01/30 11:12:01;;;;;;;;;;;;;;;9.76;100.00;98573.34;4669925;30;19957;-67
2022/01/30 11:14:36;;;;;;;;;;;;;;;10.09;100.00;98567.66;4666270;30;19973;-67
2022/01/30 11:17:08;;;;;;;;;;;;;;;10.04;100.00;98572.78;4667655;30;20354;-68
2022/01/30 11:19:37;;;;;;;;;;;;;;;10.17;100.00;98568.53;4669758;30;19957;-68
2022/01/30 11:22:05;;;;;;;;;;;;;;;9.83;100.00;98568.63;4667208;30;19952;-67
2022/01/30 11:24:44;;;;;;;;;;;;;;;10.29;100.00;98565.41;4668074;30;19977;-67
2022/01/30 11:27:12;;;;;;;;;;;;;;;10.21;100.00;98561.78;4667956;30;19963;-67
2022/01/30 11:29:39;;;;;;;;;;;;;;;10.07;100.00;98560.84;4665540;30;19999;-67
2022/01/30 11:32:07;;;;;;;;;;;;;;;10.56;100.00;98564.00;4668987;30;20258;-67
2022/01/30 11:34:36;;;;;;;;;;;;;;;10.65;100.00;98544.03;4668798;30;19963;-67
2022/01/30 11:37:04;;;;;;;;;;;;;;;11.05;100.00;98547.38;4668881;30;19961;-67
2022/01/30 11:39:32;;;;;;;;;;;;;;;11.11;100.00;98542.22;4652885;30;20422;-67
2022/01/30 11:42:13;;;;;;;;;;;;;;;11.18;100.00;98545.84;4659052;30;19981;-67
2022/01/30 11:44:43;;;;;;;;;;;;;;;10.93;100.00;98536.56;4662750;30;19970;-67
2022/01/30 11:47:11;;;;;;;;;;;;;;;10.57;100.00;98530.03;4667326;30;19958;-68
2022/01/30 11:49:41;;;;;;;;;;;;;;;11.01;100.00;98520.59;4667743;30;19973;-67
2022/01/30 11:52:09;;;;;;;;;;;;;;;11.33;100.00;98524.28;4666029;30;19961;-67
2022/01/30 11:54:40;;;;;;;;;;;;;;;11.11;100.00;98519.84;4667538;30;19952;-67
2022/01/30 11:57:22;;;;;;;;;;;;;;;11.02;100.00;98522.22;4667318;30;19957;-67
2022/01/30 11:59:56;;;;;;;;;;;;;;;10.82;100.00;98513.34;4667653;30;20249;-67
2022/01/30 12:02:31;;;;;;;;;;;;;;;10.94;100.00;98510.19;4670035;30;19966;-67
2022/01/30 12:04:58;;;;;;;;;;;;;;;10.64;100.00;98506.88;4668707;30;19964;-67
2022/01/30 12:07:36;;;;;;;;;;;;;;;10.69;100.00;98502.91;4667756;30;19963;-68
2022/01/30 12:10:15;;;;;;;;;;;;;;;10.97;100.00;98497.41;4668934;30;19977;-67
2022/01/30 12:13:02;;;;;;;;;;;;;;;10.91;100.00;98505.38;4668112;30;20346;-67
2022/01/30 12:15:38;;;;;;;;;;;;;;;11.00;100.00;98491.81;4666284;30;19953;-67
2022/01/30 12:18:09;;;;;;;;;;;;;;;10.70;100.00;98488.53;4667589;30;19970;-67
2022/01/30 12:20:55;;;;;;;;;;;;;;;11.05;100.00;98480.22;4666279;30;19989;-67
2022/01/30 12:23:27;;;;;;;;;;;;;;;11.17;100.00;98474.25;4666943;30;19960;-68
2022/01/30 12:26:07;;;;;;;;;;;;;;;10.76;100.00;98469.38;4671335;30;19969;-68
2022/01/30 12:28:42;;;;;;;;;;;;;;;11.08;100.00;98454.25;4667413;30;20075;-68
2022/01/30 12:31:23;;;;;;;;;;;;;;;11.23;100.00;98450.28;4667289;30;20320;-68
2022/01/30 12:34:17;;;;;;;;;;;;;;;11.29;100.00;98449.88;4668870;30;19961;-68
2022/01/30 12:36:54;;;;;;;;;;;;;;;11.22;100.00;98425.50;4665729;30;19957;-67
2022/01/30 12:39:23;;;;;;;;;;;;;;;11.20;100.00;98434.28;4668033;30;20336;-68
2022/01/30 12:41:51;;;;;;;;;;;;;;;11.02;100.00;98427.06;4665609;30;20266;-67
2022/01/30 12:44:20;;;;;;;;;;;;;;;11.21;100.00;98423.88;4666849;30;19978;-67
2022/01/30 12:46:49;;;;;;;;;;;;;;;11.14;100.00;98413.50;4667795;30;19956;-67
2022/01/30 12:49:17;;;;;;;;;;;;;;;10.70;100.00;98415.81;4667671;30;19995;-67
2022/01/30 12:51:54;;;;;;;;;;;;;;;10.77;100.00;98417.81;4666917;30;19960;-67
2022/01/30 12:54:25;;;;;;;;;;;;;;;10.80;100.00;98405.84;4672417;30;19956;-67
2022/01/30 12:56:54;;;;;;;;;;;;;;;10.69;100.00;98417.00;4668411;30;20334;-68
2022/01/30 12:59:24;;;;;;;;;;;;;;;10.87;100.00;98398.28;4668490;30;19957;-67
2022/01/30 13:01:51;;;;;;;;;;;;;;;10.76;100.00;98394.66;4671946;30;20255;-68
2022/01/30 13:04:26;;;;;;;;;;;;;;;10.95;100.00;98383.09;4670544;30;19962;-67
2022/01/30 13:06:53;;;;;;;;;;;;;;;11.09;100.00;98388.72;4668159;30;20333;-67
2022/01/30 13:09:22;;;;;;;;;;;;;;;10.76;100.00;98380.66;4671969;30;19980;-67
2022/01/30 13:11:50;;;;;;;;;;;;;;;10.97;100.00;98371.50;4670021;30;20233;-67
2022/01/30 13:14:18;;;;;;;;;;;;;;;11.08;100.00;98384.28;4668843;30;19956;-68
2022/01/30 13:16:49;;;;;;;;;;;;;;;11.35;100.00;98378.28;4670801;30;19961;-68
2022/01/30 13:19:35;;;;;;;;;;;;;;;11.23;100.00;98377.50;4670639;30;19952;-68
2022/01/30 13:22:07;;;;;;;;;;;;;;;11.01;100.00;98373.09;4667231;30;19958;-67
2022/01/30 13:24:35;;;;;;;;;;;;;;;10.89;100.00;98367.91;4671864;30;19963;-67
2022/01/30 13:27:04;;;;;;;;;;;;;;;10.82;100.00;98372.69;4670133;30;20654;-67
2022/01/30 13:29:34;;;;;;;;;;;;;;;11.06;100.00;98367.13;4670357;30;19976;-67
2022/01/30 13:32:07;;;;;;;;;;;;;;;10.84;100.00;98370.28;4669214;30;19953;-67
2022/01/30 13:34:35;;;;;;;;;;;;;;;10.86;100.00;98367.88;4660779;30;19951;-67
2022/01/30 13:37:06;;;;;;;;;;;;;;;11.08;100.00;98363.91;4669489;30;19965;-67
2022/01/30 13:39:38;;;;;;;;;;;;;;;11.13;100.00;98366.31;4668837;30;19961;-67
2022/01/30 13:48:07;;;;;;;;;;;;;;;11.10;100.00;98362.31;4687623;30;19954;-67
2022/01/30 13:50:37;;;;;;;;;;;;;;;11.07;100.00;98365.94;4667749;30;19974;-68
2022/01/30 13:53:07;;;;;;;;;;;;;;;11.21;100.00;98373.50;4666566;30;19962;-68
2022/01/30 13:55:36;;;;;;;;;;;;;;;11.14;100.00;98365.13;4668084;30;20290;-69
2022/01/30 13:58:03;;;;;;;;;;;;;;;11.19;100.00;98371.13;4669029;30;20016;-69
2022/01/30 14:00:32;;;;;;;;;;;;;;;11.34;100.00;98371.91;4668771;30;19988;-68
2022/01/30 14:03:04;;;;;;;;;;;;;;;11.21;100.00;98371.50;4667942;30;19979;-68
2022/01/30 14:05:32;;;;;;;;;;;;;;;11.15;100.00;98358.34;4669391;30;19966;-68
2022/01/30 14:08:00;;;;;;;;;;;;;;;11.17;100.00;98369.91;4670155;30;19964;-68
2022/01/30 14:10:29;;;;;;;;;;;;;;;10.98;100.00;98362.69;4668033;30;19974;-68
2022/01/30 14:13:03;;;;;;;;;;;;;;;10.89;100.00;98367.91;4668010;30;19953;-68
2022/01/30 14:15:31;;;;;;;;;;;;;;;11.01;100.00;98361.91;4668619;30;19954;-68
2022/01/30 14:18:05;;;;;;;;;;;;;;;10.70;100.00;98376.66;4670036;30;19964;-66
2022/01/30 14:20:32;;;;;;;;;;;;;;;10.88;100.00;98362.72;4670174;30;19953;-66
2022/01/30 14:23:05;;;;;;;;;;;;;;;10.68;100.00;98370.69;4670001;30;19958;-66
2022/01/30 14:25:32;;;;;;;;;;;;;;;10.74;100.00;98368.28;4668356;30;19966;-66
2022/01/30 14:28:00;;;;;;;;;;;;;;;10.72;100.00;98367.88;4669853;30;19974;-66
2022/01/30 14:30:37;;;;;;;;;;;;;;;10.78;100.00;98361.50;4668995;30;19975;-66
2022/01/30 14:33:05;;;;;;;;;;;;;;;10.59;100.00;98372.25;4669774;30;19963;-66
2022/01/30 14:35:36;;;;;;;;;;;;;;;10.53;100.00;98366.25;4668404;30;19955;-68
2022/01/30 14:38:05;;;;;;;;;;;;;;;10.38;100.00;98359.00;4668454;30;20339;-68
2022/01/30 14:40:35;;;;;;;;;;;;;;;10.45;100.00;98364.63;4667425;30;19954;-68
2022/01/30 14:43:03;;;;;;;;;;;;;;;10.33;100.00;98365.78;4670058;30;19961;-68
2022/01/30 14:45:32;;;;;;;;;;;;;;;10.36;100.00;98361.41;4669203;30;19957;-69
2022/01/30 14:48:00;;;;;;;;;;;;;;;10.55;100.00;98361.84;4668316;30;19951;-68
2022/01/30 14:50:27;;;;;;;;;;;;;;;10.50;100.00;98369.81;4668985;30;20373;-69
2022/01/30 14:52:54;;;;;;;;;;;;;;;10.52;100.00;98364.63;4670451;30;19961;-69
2022/01/30 14:55:22;;;;;;;;;;;;;;;10.40;100.00;98376.19;4678041;30;20334;-69
2022/01/30 14:57:51;;;;;;;;;;;;;;;10.38;100.00;98362.63;4668991;30;20414;-69
2022/01/30 15:00:18;;;;;;;;;;;;;;;10.19;100.00;98357.38;4669412;30;19955;-69
2022/01/30 15:02:46;;;;;;;;;;;;;;;10.18;100.00;98374.50;4668911;30;20260;-68
2022/01/30 15:05:14;;;;;;;;;;;;;;;10.19;100.00;98385.31;4670794;30;19979;-69
2022/01/30 15:07:46;;;;;;;;;;;;;;;10.17;100.00;98384.09;4668223;30;19958;-68
2022/01/30 15:10:14;;;;;;;;;;;;;;;10.28;100.00;98370.97;4678839;30;19980;-69
2022/01/30 15:12:42;;;;;;;;;;;;;;;10.35;100.00;98376.56;4678711;30;19958;-69
2022/01/30 15:15:12;;;;;;;;;;;;;;;10.36;100.00;98367.81;4685089;30;19958;-68
2022/01/30 15:17:40;;;;;;;;;;;;;;;10.26;100.00;98364.97;4676637;30;19954;-67
2022/01/30 15:20:12;;;;;;;;;;;;;;;10.09;100.00;98362.88;4667940;30;19956;-68
2022/01/30 15:22:40;;;;;;;;;;;;;;;10.12;100.00;98365.72;4668374;30;19953;-68
2022/01/30 15:25:09;;;;;;;;;;;;;;;9.97;100.00;98377.19;4667832;30;19961;-68
2022/01/30 15:27:37;;;;;;;;;;;;;;;9.96;100.00;98379.19;4666022;30;19969;-68
2022/01/30 15:30:06;;;;;;;;;;;;;;;9.90;100.00;98378.75;4668063;30;20000;-69
2022/01/30 15:32:35;;;;;;;;;;;;;;;9.84;100.00;98391.50;4669074;30;19957;-68
2022/01/30 15:35:04;;;;;;;;;;;;;;;9.84;100.00;98380.31;4674575;30;19957;-68
2022/01/30 15:37:31;;;;;;;;;;;;;;;9.82;100.00;98370.75;4668880;30;19962;-69
2022/01/30 15:39:59;;;;;;;;;;;;;;;9.79;100.00;98377.91;4668142;30;19968;-68
2022/01/30 15:42:27;;;;;;;;;;;;;;;9.69;100.00;98389.81;4668418;30;20259;-67
2022/01/30 15:50:09;;;;;;;;;;;;;;;9.66;100.00;98390.59;4667641;30;19954;-67
2022/01/30 15:52:36;;;;;;;;;;;;;;;9.64;100.00;98395.75;4669211;30;19963;-68
2022/01/30 15:55:04;;;;;;;;;;;;;;;9.44;100.00;98404.81;4665454;30;19958;-69
2022/01/30 15:57:32;;;;;;;;;;;;;;;9.46;100.00;98399.63;4668145;30;19952;-69
2022/01/30 15:59:59;;;;;;;;;;;;;;;9.27;100.00;98409.03;4667395;30;19953;-69
2022/01/30 16:02:26;;;;;;;;;;;;;;;9.23;100.00;98408.22;4667860;30;19958;-69
2022/01/30 16:04:55;;;;;;;;;;;;;;;9.31;100.00;98409.88;4667833;30;19955;-68
2022/01/30 16:07:24;;;;;;;;;;;;;;;9.07;100.00;98430.00;4667288;30;19966;-68
2022/01/30 16:09:54;;;;;;;;;;;;;;;9.22;100.00;98415.78;4668151;30;19958;-68
2022/01/30 16:17:38;;;;;;;;;;;;;;;9.05;100.00;98418.41;4658157;30;19961;-67
2022/01/30 16:20:06;;;;;;;;;;;;;;;8.94;100.00;98418.34;4668682;30;19958;-67
2022/01/30 16:22:33;;;;;;;;;;;;;;;8.95;100.00;98431.06;4667689;30;19958;-67
2022/01/30 16:25:01;;;;;;;;;;;;;;;8.97;100.00;98417.56;4665112;30;19965;-67
2022/01/30 16:27:28;;;;;;;;;;;;;;;8.89;100.00;98420.66;4667426;30;20393;-67
2022/01/30 16:29:55;;;;;;;;;;;;;;;8.87;100.00;98421.06;4666746;30;19959;-67
2022/01/30 16:32:22;;;;;;;;;;;;;;;8.84;100.00;98426.59;4667601;30;19969;-67
2022/01/30 16:34:50;;;;;;;;;;;;;;;8.75;100.00;98445.63;4667585;30;19954;-67
2022/01/30 16:37:17;;;;;;;;;;;;;;;8.83;100.00;98430.56;4665712;30;19993;-67
2022/01/30 16:39:44;;;;;;;;;;;;;;;8.77;100.00;98437.69;4665408;30;19966;-67
2022/01/30 16:42:12;;;;;;;;;;;;;;;8.83;100.00;98447.28;4667140;30;19963;-67
2022/01/30 16:44:42;;;;;;;;;;;;;;;8.63;100.00;98440.31;4667537;30;19976;-67
2022/01/30 16:47:31;;;;;;;;;;;;;;;8.58;100.00;98435.88;4663003;30;19955;-67
2022/01/30 16:49:58;;;;;;;;;;;;;;;8.59;100.00;98440.25;4666787;30;20036;-67
2022/01/30 16:52:26;;;;;;;;;;;;;;;8.51;100.00;98439.38;4667764;30;19973;-67
2022/01/30 16:54:54;;;;;;;;;;;;;;;8.54;100.00;98447.00;4666735;30;19962;-67
2022/01/30 16:57:25;;;;;;;;;;;;;;;8.50;100.00;98448.94;4666844;30;19960;-67
2022/01/30 16:59:54;;;;;;;;;;;;;;;8.42;100.00;98450.03;4667517;30;19952;-67
2022/01/30 17:02:21;;;;;;;;;;;;;;;8.52;100.00;98443.78;4672817;30;19966;-67
2022/01/30 17:04:49;;;;;;;;;;;;;;;8.49;100.00;98443.72;4674369;30;19961;-67
2022/01/30 17:07:19;;;;;;;;;;;;;;;8.61;100.00;98446.25;4672178;30;19962;-67
2022/01/30 17:09:49;;;;;;;;;;;;;;;8.61;100.00;98442.69;4665847;30;19962;-67
2022/01/30 17:14:50;;;;;;;;;;;;;;;8.49;100.00;98444.53;4650570;30;20255;-67
2022/01/30 17:17:20;;;;;;;;;;;;;;;8.55;100.00;98445.81;4667782;30;19962;-67
2022/01/30 17:19:48;;;;;;;;;;;;;;;8.57;100.00;98457.38;4666801;30;19964;-67
2022/01/30 17:22:15;;;;;;;;;;;;;;;8.51;100.00;98460.88;4667485;30;19964;-67
2022/01/30 17:24:47;;;;;;;;;;;;;;;8.41;100.00;98462.34;4667507;30;20729;-67
2022/01/30 17:27:14;;;;;;;;;;;;;;;8.35;100.00;98465.84;4664357;30;20649;-69
2022/01/30 17:29:41;;;;;;;;;;;;;;;8.29;100.00;98479.31;4666727;30;19963;-68
2022/01/30 17:32:09;;;;;;;;;;;;;;;8.21;100.00;98476.78;4667386;30;19981;-67
2022/01/30 17:34:36;;;;;;;;;;;;;;;8.14;100.00;98465.56;4665880;30;20378;-68
2022/01/30 17:37:03;;;;;;;;;;;;;;;8.06;100.00;98469.41;4671226;30;19964;-69
2022/01/30 17:39:31;;;;;;;;;;;;;;;8.02;100.00;98474.94;4667064;30;19952;-68
2022/01/30 17:42:00;;;;;;;;;;;;;;;7.94;100.00;98471.28;4668366;30;19966;-68
2022/01/30 17:44:27;;;;;;;;;;;;;;;7.85;100.00;98483.84;4673685;30;19976;-70
2022/01/30 17:46:56;;;;;;;;;;;;;;;7.84;100.00;98479.47;4665886;30;19957;-68
2022/01/30 17:49:24;;;;;;;;;;;;;;;7.79;100.00;98488.13;4654030;30;19968;-69
2022/01/30 17:51:52;;;;;;;;;;;;;;;7.74;100.00;98475.34;4661273;30;20002;-68
2022/01/30 17:54:19;;;;;;;;;;;;;;;7.66;100.00;98478.38;4667145;30;19959;-67
2022/01/30 17:56:47;;;;;;;;;;;;;;;7.62;100.00;98491.44;4667453;30;19964;-68
2022/01/30 17:59:14;;;;;;;;;;;;;;;7.58;100.00;98498.94;4669792;30;19958;-69
2022/01/30 18:01:41;;;;;;;;;;;;;;;7.58;100.00;98498.94;4675714;30;19965;-69
2022/01/30 18:04:10;;;;;;;;;;;;;;;7.57;100.00;98502.88;4672966;30;19958;-69
2022/01/30 18:06:37;;;;;;;;;;;;;;;7.54;100.00;98510.00;4667383;30;19966;-69
2022/01/30 18:09:05;;;;;;;;;;;;;;;7.51;100.00;98521.06;4667120;30;20351;-69
2022/01/30 18:11:33;;;;;;;;;;;;;;;7.49;100.00;98517.84;4666695;30;19970;-69
2022/01/30 18:14:00;;;;;;;;;;;;;;;7.42;100.00;98498.25;4670162;30;19965;-67
2022/01/30 18:16:28;;;;;;;;;;;;;;;7.45;100.00;98508.66;4669946;30;19965;-68
2022/01/30 18:18:56;;;;;;;;;;;;;;;7.45;100.00;98508.66;4669452;30;19960;-68
2022/01/30 18:21:23;;;;;;;;;;;;;;;7.43;100.00;98509.03;4668910;30;20248;-67
2022/01/30 18:23:51;;;;;;;;;;;;;;;7.48;100.00;98510.69;4669749;30;19989;-67
2022/01/30 18:26:18;;;;;;;;;;;;;;;7.48;100.00;98536.56;4673620;30;19963;-68
2022/01/30 18:28:48;;;;;;;;;;;;;;;7.45;100.00;98522.56;4669078;30;19961;-68
2022/01/30 18:31:15;;;;;;;;;;;;;;;7.40;100.00;98525.66;4669513;30;19961;-68
2022/01/30 18:33:45;;;;;;;;;;;;;;;7.42;100.00;98526.09;4676290;30;19960;-69
2022/01/30 18:36:20;;;;;;;;;;;;;;;7.51;100.00;98521.06;4667182;30;19954;-70
2022/01/30 18:38:54;;;;;;;;;;;;;;;7.62;100.00;98524.84;4667747;30;19961;-69
2022/01/30 18:41:21;;;;;;;;;;;;;;;7.76;100.00;98533.41;4659065;30;20516;-69
2022/01/30 18:43:50;;;;;;;;;;;;;;;7.87;100.00;98524.03;4669549;30;20392;-68
2022/01/30 18:46:18;;;;;;;;;;;;;;;7.95;100.00;98522.16;4668932;30;19961;-68
2022/01/30 18:48:45;;;;;;;;;;;;;;;8.03;100.00;98523.88;4667326;30;19969;-69
2022/01/30 18:51:13;;;;;;;;;;;;;;;8.19;100.00;98529.31;4656662;30;19992;-68
2022/01/30 18:53:40;;;;;;;;;;;;;;;8.22;100.00;98540.47;4673661;30;19956;-68
2022/01/30 18:56:08;;;;;;;;;;;;;;;8.19;100.00;98541.22;4667136;30;19962;-68
2022/01/30 18:58:35;;;;;;;;;;;;;;;8.13;100.00;98548.31;4668480;30;19960;-67
2022/01/30 19:01:03;;;;;;;;;;;;;;;8.11;100.00;98545.09;4670231;30;19954;-67
2022/01/30 19:03:31;;;;;;;;;;;;;;;8.21;100.00;98544.47;4672074;30;19966;-68
2022/01/30 19:05:58;;;;;;;;;;;;;;;8.16;100.00;98541.19;4667423;30;19969;-68
2022/01/30 19:08:26;;;;;;;;;;;;;;;8.19;100.00;98543.22;4667674;30;19959;-68
2022/01/30 19:10:55;;;;;;;;;;;;;;;8.27;100.00;98537.41;4667722;30;20263;-68
2022/01/30 19:13:22;;;;;;;;;;;;;;;8.27;100.00;98533.81;4668847;30;19973;-68
2022/01/30 19:15:50;;;;;;;;;;;;;;;8.26;100.00;98538.59;4668737;30;19952;-68
2022/01/30 19:18:18;;;;;;;;;;;;;;;8.31;100.00;98540.25;4668822;30;19987;-68
2022/01/30 19:20:46;;;;;;;;;;;;;;;8.33;100.00;98549.03;4671514;30;19954;-68
2022/01/30 19:23:13;;;;;;;;;;;;;;;8.30;100.00;98546.97;4664204;30;20367;-68
2022/01/30 19:25:41;;;;;;;;;;;;;;;8.23;100.00;98544.88;4666096;30;19962;-68
2022/01/30 19:28:09;;;;;;;;;;;;;;;8.17;100.00;98553.91;4668247;30;19960;-68
2022/01/30 19:30:38;;;;;;;;;;;;;;;8.10;100.00;98565.75;4654662;30;19963;-67
2022/01/30 19:33:06;;;;;;;;;;;;;;;8.02;100.00;98557.69;4668487;30;19982;-68
2022/01/30 19:35:36;;;;;;;;;;;;;;;8.00;100.00;98574.75;4667855;30;19989;-68
2022/01/30 19:38:05;;;;;;;;;;;;;;;7.91;100.00;98561.13;4667833;30;19953;-67
2022/01/30 19:40:33;;;;;;;;;;;;;;;7.76;100.00;98564.84;4668231;30;19961;-68
2022/01/30 19:43:00;;;;;;;;;;;;;;;7.64;100.00;98553.09;4667875;30;20393;-67
2022/01/30 19:45:32;;;;;;;;;;;;;;;7.53;100.00;98557.69;4667559;30;19962;-68
2022/01/30 19:47:59;;;;;;;;;;;;;;;7.40;100.00;98557.06;4668759;30;20269;-67
2022/01/30 19:50:27;;;;;;;;;;;;;;;7.30;100.00;98554.91;4668174;30;19964;-67
2022/01/30 19:52:54;;;;;;;;;;;;;;;7.28;100.00;98555.28;4668085;30;19976;-67
2022/01/30 19:55:22;;;;;;;;;;;;;;;7.25;100.00;98557.97;4666762;30;20366;-66
2022/01/30 19:57:50;;;;;;;;;;;;;;;7.26;100.00;98542.91;4667123;30;19963;-66